Portada
METAR-TAF:

METAR-TAF

Aeroports :

Glasgow, Montana, Estats Units d'Amèrica

latitud: 48-12-50N, longitud: 106-37-17W, altitud: 699 m

Observació

L'informe es va fer fa 58 minuts, a les 15:53 UTC
Vent 11 kt del Nord-Oest
Temperatura 19°C
Humitat 37%
Pressió 1014 hPa
Visibilitat: 16.1 km
Cel clar

METAR: KGGW 011553Z AUTO 32011KT 10SM CLR 19/04 A2993 RMK AO2 SLP127 T01940044

Hora: 10:51 (16:51 UTC)

Pronòstic

L'informe es va fer fa 5 hores i 18 minuts, a les 11:33 UTC
Pronòstic vàlid del 01 a les 12 UTC al 02 a les 12 UTC
Vent 9 kt del Oest
Visibilitat: 10 km
Escasses núvols a una alçada de 25000 ft
A partir de les 02 a les 0700 UTC
Vent 10 kt del Nord-Oest
Visibilitat: 10 km
Cel ennuvolat a una alçada de 6000 ft
A partir de les 02 a les 1100 UTC
Vent 7 kt del Oest
Visibilitat: 10 km
Núvols disperses a una alçada de 6000 ft

TAF: KGGW 011133Z 0112/0212 28009KT P6SM FEW250 FM020700 31010KT P6SM BKN060 FM021100 27007KT P6SM SCT060

Observacions i pronòstics meteorològics de més de 4000 aeroports (METAR i TAF).

Les estacions disponibles són els punts grocs i vermells al mapa.

Posi el ratolí al punt desitjat per veure el nom de l'estació.

Feu clic per veure les observacions i els pronòstics meteorològics.

Per canviar el mapa: feu clic els botons verds amb una creu de color negre per apropar; al botó verd amb un guió per allunyar la imatge; o en les fletxes verdes per a mapes adjacents.


METAR-TAF: